createdAt,value
2023-04-21T00:00:37.594Z,10.60
2023-04-21T00:01:39.846Z,10.60
2023-04-21T00:02:42.318Z,10.60
2023-04-21T00:03:44.779Z,10.60
2023-04-21T00:04:47.387Z,10.60
2023-04-21T00:05:50.917Z,10.60
2023-04-21T00:06:53.282Z,10.60
2023-04-21T00:07:55.559Z,10.60
2023-04-21T00:08:57.818Z,10.60
2023-04-21T00:10:00.052Z,10.60
2023-04-21T00:11:02.275Z,10.60
2023-04-21T00:12:04.704Z,10.60
2023-04-21T00:13:07.056Z,10.60
2023-04-21T00:14:09.267Z,10.60
2023-04-21T00:15:12.793Z,10.60
2023-04-21T00:16:15.182Z,10.60
2023-04-21T00:17:17.504Z,10.60
2023-04-21T00:18:19.780Z,10.60
2023-04-21T00:19:23.865Z,10.50
2023-04-21T00:20:26.923Z,10.50
2023-04-21T00:21:29.136Z,10.50
2023-04-21T00:22:31.457Z,10.50
2023-04-21T00:23:33.770Z,10.50
2023-04-21T00:24:36.063Z,10.50
2023-04-21T00:25:38.394Z,10.50
2023-04-21T00:26:40.735Z,10.50
2023-04-21T00:27:43.256Z,10.50
2023-04-21T00:28:46.196Z,10.50
2023-04-21T00:29:48.536Z,10.50
2023-04-21T00:30:50.830Z,10.50
2023-04-21T00:31:53.307Z,10.50
2023-04-21T00:32:56.016Z,10.50
2023-04-21T00:33:58.330Z,10.50
2023-04-21T00:35:01.011Z,10.40
2023-04-21T00:36:03.415Z,10.50
2023-04-21T00:37:05.736Z,10.50
2023-04-21T00:38:08.066Z,10.40
2023-04-21T00:39:11.569Z,10.40
2023-04-21T00:40:14.024Z,10.40
2023-04-21T00:41:16.605Z,10.40
2023-04-21T00:42:18.877Z,10.40
2023-04-21T00:43:21.231Z,10.40
2023-04-21T00:44:23.481Z,10.40
2023-04-21T00:45:26.009Z,10.40
2023-04-21T00:46:29.380Z,10.40
2023-04-21T00:47:31.778Z,10.30
2023-04-21T00:48:34.200Z,10.30
2023-04-21T00:49:36.696Z,10.30
2023-04-21T00:50:39.148Z,10.30
2023-04-21T00:51:42.119Z,10.30
2023-04-21T00:52:47.078Z,10.30
2023-04-21T00:53:51.203Z,10.30
2023-04-21T00:54:53.970Z,10.30
2023-04-21T00:55:56.893Z,10.30
2023-04-21T00:57:00.497Z,10.30
2023-04-21T00:58:04.423Z,10.30
2023-04-21T00:59:06.669Z,10.30
2023-04-21T01:00:10.573Z,10.30
2023-04-21T01:01:13.827Z,10.30
2023-04-21T01:02:21.429Z,10.30
2023-04-21T01:03:23.901Z,10.30
2023-04-21T01:04:26.321Z,10.30
2023-04-21T01:05:28.607Z,10.30
2023-04-21T01:06:34.867Z,10.20
2023-04-21T01:07:38.959Z,10.20
2023-04-21T01:08:42.287Z,10.20
2023-04-21T01:09:44.521Z,10.20
2023-04-21T01:10:46.908Z,10.20
2023-04-21T01:12:03.302Z,10.20
2023-04-21T01:13:05.599Z,10.20
2023-04-21T01:14:08.018Z,10.20
2023-04-21T01:15:12.277Z,10.10
2023-04-21T01:16:18.352Z,10.10
2023-04-21T01:17:21.653Z,10.10
2023-04-21T01:18:23.895Z,10.10
2023-04-21T01:19:31.272Z,10.10
2023-04-21T01:20:33.625Z,10.10
2023-04-21T01:21:41.611Z,10.10
2023-04-21T01:22:45.149Z,10.10
2023-04-21T01:23:47.498Z,10.10
2023-04-21T01:24:49.824Z,10.10
2023-04-21T01:25:52.808Z,10.10
2023-04-21T01:26:55.135Z,10.10
2023-04-21T01:27:57.591Z,10.00
2023-04-21T01:28:59.916Z,10.00
2023-04-21T01:30:02.496Z,10.00
2023-04-21T01:31:06.367Z,10.00
2023-04-21T01:32:11.589Z,10.00
2023-04-21T01:33:13.919Z,10.00
2023-04-21T01:34:16.281Z,10.00
2023-04-21T01:35:20.576Z,10.00
2023-04-21T01:36:22.881Z,10.00
2023-04-21T01:37:31.347Z,9.90
2023-04-21T01:38:33.586Z,9.90
2023-04-21T01:39:39.805Z,9.90
2023-04-21T01:40:43.078Z,9.90
2023-04-21T01:41:45.464Z,9.90
2023-04-21T01:42:47.749Z,9.90
2023-04-21T01:43:50.160Z,9.90
2023-04-21T01:44:56.333Z,9.90
2023-04-21T01:45:58.850Z,9.80
2023-04-21T01:47:01.247Z,9.80
2023-04-21T01:48:03.740Z,9.80
2023-04-21T01:49:06.046Z,9.80
2023-04-21T01:50:09.862Z,9.80
2023-04-21T01:51:12.373Z,9.80
2023-04-21T01:52:14.664Z,9.80
2023-04-21T01:53:16.977Z,9.80
2023-04-21T01:54:19.213Z,9.80
2023-04-21T01:55:21.706Z,9.80
2023-04-21T01:56:24.020Z,9.80
2023-04-21T01:57:26.255Z,9.80
2023-04-21T01:58:28.564Z,9.80
2023-04-21T01:59:30.844Z,9.80
2023-04-21T02:00:33.126Z,9.80
2023-04-21T02:01:36.310Z,9.70
2023-04-21T02:02:39.328Z,9.70
2023-04-21T02:03:42.122Z,9.80
2023-04-21T02:04:44.599Z,9.70
2023-04-21T02:05:46.844Z,9.70
2023-04-21T02:06:49.071Z,9.70
2023-04-21T02:07:51.366Z,9.80
2023-04-21T02:08:53.655Z,9.70
2023-04-21T02:09:56.107Z,9.70
2023-04-21T02:11:01.081Z,9.70
2023-04-21T02:12:03.951Z,9.70
2023-04-21T02:13:06.721Z,9.70
2023-04-21T02:14:09.103Z,9.70
2023-04-21T02:15:11.983Z,9.70
2023-04-21T02:16:14.590Z,9.70
2023-04-21T02:17:17.815Z,9.70
2023-04-21T02:18:20.285Z,9.70
2023-04-21T02:19:22.645Z,9.70
2023-04-21T02:20:24.892Z,9.70
2023-04-21T02:21:28.231Z,9.70
2023-04-21T02:22:30.538Z,9.70
2023-04-21T02:23:32.847Z,9.70
2023-04-21T02:24:36.082Z,9.70
2023-04-21T02:25:38.365Z,9.70
2023-04-21T02:26:40.773Z,9.70
2023-04-21T02:27:43.107Z,9.60
2023-04-21T02:28:45.806Z,9.60
2023-04-21T02:29:50.428Z,9.60
2023-04-21T02:30:52.809Z,9.60
2023-04-21T02:32:03.097Z,9.60
2023-04-21T02:33:07.961Z,9.60
2023-04-21T02:34:13.336Z,9.60
2023-04-21T02:35:15.719Z,9.60
2023-04-21T02:36:17.946Z,9.60
2023-04-21T02:37:21.096Z,9.60
2023-04-21T02:38:23.469Z,9.50
2023-04-21T02:39:26.092Z,9.60
2023-04-21T02:40:28.341Z,9.60
2023-04-21T02:41:30.653Z,9.60
2023-04-21T02:42:34.814Z,9.60
2023-04-21T02:43:37.151Z,9.60
2023-04-21T02:44:39.457Z,9.60
2023-04-21T02:45:42.665Z,9.60
2023-04-21T02:46:44.938Z,9.60
2023-04-21T02:47:47.352Z,9.60
2023-04-21T02:48:49.602Z,9.60
2023-04-21T02:49:52.011Z,9.50
2023-04-21T02:50:54.287Z,9.50
2023-04-21T02:51:57.671Z,9.50
2023-04-21T02:53:00.088Z,9.50
2023-04-21T02:54:03.119Z,9.50
2023-04-21T02:55:05.941Z,9.50
2023-04-21T02:56:09.088Z,9.50
2023-04-21T02:57:11.332Z,9.50
2023-04-21T02:58:15.483Z,9.50
2023-04-21T02:59:18.092Z,9.50
2023-04-21T03:00:20.677Z,9.50
2023-04-21T03:01:22.955Z,9.50
2023-04-21T03:02:25.815Z,9.40
2023-04-21T03:03:28.339Z,9.40
2023-04-21T03:04:32.621Z,9.40
2023-04-21T03:05:35.176Z,9.40
2023-04-21T03:06:37.744Z,9.40
2023-04-21T03:07:41.162Z,9.40
2023-04-21T03:08:43.547Z,9.40
2023-04-21T03:09:45.817Z,9.40
2023-04-21T03:10:48.045Z,9.40
2023-04-21T03:11:50.333Z,9.30
2023-04-21T03:12:53.918Z,9.30
2023-04-21T03:13:56.171Z,9.30
2023-04-21T03:14:58.965Z,9.30
2023-04-21T03:16:01.279Z,9.30
2023-04-21T03:17:03.564Z,9.30
2023-04-21T03:18:06.830Z,9.30
2023-04-21T03:19:09.266Z,9.30
2023-04-21T03:20:12.848Z,9.30
2023-04-21T03:21:15.150Z,9.30
2023-04-21T03:22:17.384Z,9.30
2023-04-21T03:23:19.728Z,9.30
2023-04-21T03:24:22.152Z,9.30
2023-04-21T03:25:24.620Z,9.30
2023-04-21T03:26:26.931Z,9.30
2023-04-21T03:27:29.172Z,9.30
2023-04-21T03:28:32.319Z,9.30
2023-04-21T03:29:36.203Z,9.20
2023-04-21T03:30:38.633Z,9.20
2023-04-21T03:31:41.028Z,9.20
2023-04-21T03:32:43.493Z,9.20
2023-04-21T03:33:45.745Z,9.20
2023-04-21T03:34:47.990Z,9.10
2023-04-21T03:35:50.392Z,9.10
2023-04-21T03:36:52.672Z,9.10
2023-04-21T03:37:54.926Z,9.10
2023-04-21T03:39:05.920Z,9.10
2023-04-21T03:40:15.819Z,9.10
2023-04-21T03:41:19.223Z,9.00
2023-04-21T03:42:21.549Z,9.10
2023-04-21T03:43:24.637Z,9.00
2023-04-21T03:44:28.701Z,9.10
2023-04-21T03:45:31.025Z,9.00
2023-04-21T03:46:35.034Z,9.10
2023-04-21T03:47:37.436Z,9.00
2023-04-21T03:48:39.736Z,9.00
2023-04-21T03:49:41.958Z,9.00
2023-04-21T03:50:44.194Z,9.00
2023-04-21T03:51:46.396Z,9.00
2023-04-21T03:52:48.613Z,9.00
2023-04-21T03:53:51.064Z,9.00
2023-04-21T03:54:53.347Z,9.00
2023-04-21T03:55:55.612Z,9.00
2023-04-21T03:56:57.881Z,9.00
2023-04-21T03:58:00.398Z,9.00
2023-04-21T03:59:02.862Z,9.00
2023-04-21T04:00:07.268Z,9.00
2023-04-21T04:01:14.883Z,9.00
2023-04-21T04:02:17.306Z,9.00
2023-04-21T04:03:21.855Z,9.00
2023-04-21T04:04:25.964Z,9.00
2023-04-21T04:05:28.629Z,9.00
2023-04-21T04:06:32.158Z,9.00
2023-04-21T04:07:34.963Z,9.00
2023-04-21T04:08:37.257Z,9.00
2023-04-21T04:09:39.485Z,9.00
2023-04-21T04:10:41.746Z,9.00
2023-04-21T04:11:43.953Z,9.00
2023-04-21T04:12:46.216Z,9.00
2023-04-21T04:13:48.497Z,9.00
2023-04-21T04:14:50.905Z,9.00
2023-04-21T04:15:53.644Z,9.00
2023-04-21T04:16:55.913Z,9.00
2023-04-21T04:17:58.304Z,9.00
2023-04-21T04:19:00.604Z,9.00
2023-04-21T04:20:04.817Z,9.00
2023-04-21T04:21:07.706Z,9.00
2023-04-21T04:22:09.945Z,9.00
2023-04-21T04:23:12.249Z,9.00
2023-04-21T04:24:15.808Z,9.10
2023-04-21T04:25:18.810Z,9.10
2023-04-21T04:26:24.806Z,9.10
2023-04-21T04:27:27.836Z,9.10
2023-04-21T04:28:30.836Z,9.10
2023-04-21T04:29:33.097Z,9.00
2023-04-21T04:30:35.735Z,9.10
2023-04-21T04:31:38.042Z,9.00
2023-04-21T04:32:40.444Z,9.10
2023-04-21T04:33:43.369Z,9.10
2023-04-21T04:34:45.599Z,9.10
2023-04-21T04:35:48.053Z,9.10
2023-04-21T04:36:51.185Z,9.10
2023-04-21T04:37:54.813Z,9.10
2023-04-21T04:38:58.495Z,9.10
2023-04-21T04:40:00.860Z,9.10
2023-04-21T04:41:04.789Z,9.10
2023-04-21T04:42:09.491Z,9.10
2023-04-21T04:43:11.910Z,9.10
2023-04-21T04:44:16.278Z,9.10
2023-04-21T04:45:22.204Z,9.10
2023-04-21T04:46:24.868Z,9.10
2023-04-21T04:47:27.276Z,9.10
2023-04-21T04:48:29.644Z,9.10
2023-04-21T04:49:31.969Z,9.20
2023-04-21T04:50:34.217Z,9.20
2023-04-21T04:51:36.609Z,9.20
2023-04-21T04:52:39.063Z,9.20
2023-04-21T04:53:41.302Z,9.20
2023-04-21T04:54:43.539Z,9.20
2023-04-21T04:55:47.211Z,9.20
2023-04-21T04:56:49.452Z,9.20
2023-04-21T04:57:51.785Z,9.20
2023-04-21T04:58:53.992Z,9.20
2023-04-21T04:59:56.724Z,9.30
2023-04-21T05:00:59.081Z,9.30
2023-04-21T05:02:01.461Z,9.30
2023-04-21T05:03:03.843Z,9.30
2023-04-21T05:04:06.348Z,9.30
2023-04-21T05:05:09.056Z,9.30
2023-04-21T05:06:11.524Z,9.40
2023-04-21T05:07:13.736Z,9.40
2023-04-21T05:08:18.030Z,9.40
2023-04-21T05:09:20.787Z,9.40
2023-04-21T05:10:24.297Z,9.40
2023-04-21T05:11:26.570Z,9.40
2023-04-21T05:12:28.829Z,9.50
2023-04-21T05:13:31.036Z,9.50
2023-04-21T05:14:33.279Z,9.50
2023-04-21T05:15:35.921Z,9.50
2023-04-21T05:16:38.250Z,9.60
2023-04-21T05:17:40.584Z,9.60
2023-04-21T05:18:42.898Z,9.60
2023-04-21T05:19:45.307Z,9.70
2023-04-21T05:20:47.598Z,9.70
2023-04-21T05:21:49.826Z,9.70
2023-04-21T05:22:52.395Z,9.80
2023-04-21T05:23:56.510Z,9.80
2023-04-21T05:24:59.922Z,9.80
2023-04-21T05:26:04.526Z,9.80
2023-04-21T05:27:07.501Z,9.80
2023-04-21T05:28:09.812Z,9.90
2023-04-21T05:29:12.048Z,9.90
2023-04-21T05:30:14.296Z,9.90
2023-04-21T05:31:16.623Z,9.90
2023-04-21T05:32:18.998Z,10.00
2023-04-21T05:33:21.919Z,10.00
2023-04-21T05:34:24.359Z,10.00
2023-04-21T05:35:26.626Z,10.10
2023-04-21T05:36:30.476Z,10.10
2023-04-21T05:37:32.708Z,10.10
2023-04-21T05:38:38.539Z,10.10
2023-04-21T05:39:40.880Z,10.20
2023-04-21T05:40:43.081Z,10.20
2023-04-21T05:41:45.433Z,10.30
2023-04-21T05:42:47.829Z,10.30
2023-04-21T05:43:50.119Z,10.40
2023-04-21T05:44:52.394Z,10.40
2023-04-21T05:45:55.409Z,10.40
2023-04-21T05:46:57.914Z,10.50
2023-04-21T05:48:00.961Z,10.50
2023-04-21T05:49:03.359Z,10.60
2023-04-21T05:50:07.643Z,10.60
2023-04-21T05:51:15.458Z,10.70
2023-04-21T05:52:17.984Z,10.70
2023-04-21T05:53:20.247Z,10.70
2023-04-21T05:54:22.593Z,10.80
2023-04-21T05:55:24.825Z,10.70
2023-04-21T05:56:27.186Z,10.80
2023-04-21T05:57:29.433Z,10.80
2023-04-21T05:58:31.691Z,10.80
2023-04-21T05:59:34.067Z,10.80
2023-04-21T06:00:36.312Z,10.90
2023-04-21T06:01:39.321Z,10.90
2023-04-21T06:02:41.639Z,10.90
2023-04-21T06:03:44.240Z,10.90
2023-04-21T06:04:46.812Z,10.90
2023-04-21T06:05:57.431Z,11.00
2023-04-21T06:07:06.705Z,11.00
2023-04-21T06:08:08.930Z,11.10
2023-04-21T06:09:11.459Z,11.10
2023-04-21T06:10:14.449Z,11.10
2023-04-21T06:11:17.145Z,11.20
2023-04-21T06:12:19.375Z,11.20
2023-04-21T06:13:21.668Z,11.30
2023-04-21T06:14:23.999Z,11.30
2023-04-21T06:15:26.269Z,11.40
2023-04-21T06:16:29.348Z,11.40
2023-04-21T06:17:31.678Z,11.40
2023-04-21T06:18:34.024Z,11.50
2023-04-21T06:19:40.367Z,11.50
2023-04-21T06:20:53.923Z,11.60
2023-04-21T06:21:57.334Z,11.60
2023-04-21T06:22:59.617Z,11.60
2023-04-21T06:24:01.836Z,11.60
2023-04-21T06:25:05.643Z,11.70
2023-04-21T06:26:08.971Z,11.70
2023-04-21T06:27:14.576Z,11.80
2023-04-21T06:28:16.828Z,11.80
2023-04-21T06:29:20.005Z,11.90
2023-04-21T06:30:22.335Z,11.90
2023-04-21T06:31:24.622Z,11.90
2023-04-21T06:32:26.928Z,12.00
2023-04-21T06:33:29.835Z,12.00
2023-04-21T06:34:32.344Z,12.00
2023-04-21T06:35:34.695Z,12.00
2023-04-21T06:36:36.932Z,12.10
2023-04-21T06:37:39.420Z,12.20
2023-04-21T06:38:43.233Z,12.20
2023-04-21T06:39:45.785Z,12.20
2023-04-21T06:40:48.325Z,12.20
2023-04-21T06:41:50.649Z,12.30
2023-04-21T06:42:54.016Z,12.30
2023-04-21T06:43:56.263Z,12.30
2023-04-21T06:44:58.571Z,12.40
2023-04-21T06:46:00.947Z,12.40
2023-04-21T06:47:03.228Z,12.40
2023-04-21T06:48:06.183Z,12.40
2023-04-21T06:49:09.386Z,12.50
2023-04-21T06:50:12.045Z,12.50
2023-04-21T06:51:15.028Z,12.50
2023-04-21T06:52:19.980Z,12.50
2023-04-21T06:53:22.491Z,12.60
2023-04-21T06:54:24.727Z,12.60
2023-04-21T06:55:27.069Z,12.60
2023-04-21T06:56:29.831Z,12.70
2023-04-21T06:57:32.089Z,12.70
2023-04-21T06:58:34.380Z,12.70
2023-04-21T06:59:36.869Z,12.80
2023-04-21T07:00:39.303Z,12.80
2023-04-21T07:01:42.335Z,12.80
2023-04-21T07:02:44.768Z,12.80
2023-04-21T07:03:47.224Z,12.80
2023-04-21T07:04:49.688Z,12.80
2023-04-21T07:05:52.210Z,12.80
2023-04-21T07:06:54.468Z,12.90
2023-04-21T07:08:00.761Z,12.90
2023-04-21T07:09:03.092Z,12.90
2023-04-21T07:10:05.874Z,12.90
2023-04-21T07:11:08.151Z,12.90
2023-04-21T07:12:10.657Z,12.90
2023-04-21T07:13:12.982Z,12.90
2023-04-21T07:14:15.239Z,13.00
2023-04-21T07:15:17.649Z,13.00
2023-04-21T07:16:20.007Z,13.10
2023-04-21T07:17:22.280Z,13.10
2023-04-21T07:18:24.591Z,13.10
2023-04-21T07:19:27.022Z,13.20
2023-04-21T07:20:29.453Z,13.30
2023-04-21T07:21:36.079Z,13.30
2023-04-21T07:22:38.437Z,13.40
2023-04-21T07:23:41.790Z,13.50
2023-04-21T07:24:44.203Z,13.50
2023-04-21T07:25:46.533Z,13.60
2023-04-21T07:26:48.809Z,13.60
2023-04-21T07:27:51.160Z,13.70
2023-04-21T07:28:53.662Z,13.70
2023-04-21T07:29:55.894Z,13.70
2023-04-21T07:30:58.220Z,13.80
2023-04-21T07:32:00.601Z,13.80
2023-04-21T07:33:03.800Z,13.80
2023-04-21T07:34:06.172Z,13.90
2023-04-21T07:35:08.725Z,13.90
2023-04-21T07:36:11.303Z,13.90
2023-04-21T07:37:13.557Z,13.90
2023-04-21T07:38:15.765Z,14.00
2023-04-21T07:39:18.373Z,14.00
2023-04-21T07:40:20.807Z,14.10
2023-04-21T07:41:23.135Z,14.10
2023-04-21T07:42:26.934Z,14.10
2023-04-21T07:43:31.089Z,14.20
2023-04-21T07:44:34.140Z,14.20
2023-04-21T07:45:36.416Z,14.20
2023-04-21T07:46:38.858Z,14.30
2023-04-21T07:47:41.448Z,14.40
2023-04-21T07:48:44.768Z,14.40
2023-04-21T07:49:48.444Z,14.40
2023-04-21T07:50:51.196Z,14.40
2023-04-21T07:51:53.480Z,14.40
2023-04-21T07:52:56.133Z,14.30
2023-04-21T07:53:58.380Z,14.30
2023-04-21T07:55:02.066Z,14.30
2023-04-21T07:56:04.649Z,14.30
2023-04-21T07:57:07.518Z,14.30
2023-04-21T07:58:10.504Z,14.40
2023-04-21T07:59:12.810Z,14.40
2023-04-21T08:00:15.940Z,14.40
2023-04-21T08:01:18.282Z,14.40
2023-04-21T08:02:20.818Z,14.40
2023-04-21T08:03:24.614Z,14.30
2023-04-21T08:04:27.471Z,14.40
2023-04-21T08:05:33.309Z,14.40
2023-04-21T08:06:37.500Z,14.50
2023-04-21T08:07:39.881Z,14.60
2023-04-21T08:08:42.132Z,14.60
2023-04-21T08:09:44.545Z,14.70
2023-04-21T08:10:47.217Z,14.70
2023-04-21T08:11:49.590Z,14.80
2023-04-21T08:12:51.856Z,14.80
2023-04-21T08:13:54.379Z,14.80
2023-04-21T08:14:56.922Z,14.80
2023-04-21T08:15:59.295Z,14.80
2023-04-21T08:17:01.816Z,14.90
2023-04-21T08:18:04.351Z,15.00
2023-04-21T08:19:07.375Z,15.10
2023-04-21T08:20:10.247Z,15.10
2023-04-21T08:21:12.612Z,15.10
2023-04-21T08:22:15.084Z,15.20
2023-04-21T08:23:17.401Z,15.20
2023-04-21T08:24:19.941Z,15.20
2023-04-21T08:25:22.749Z,15.30
2023-04-21T08:26:25.550Z,15.30
2023-04-21T08:27:27.853Z,15.40
2023-04-21T08:28:30.378Z,15.40
2023-04-21T08:29:32.700Z,15.50
2023-04-21T08:30:35.197Z,15.50
2023-04-21T08:31:37.606Z,15.60
2023-04-21T08:32:40.274Z,15.60
2023-04-21T08:33:53.995Z,15.60
2023-04-21T08:35:03.321Z,15.70
2023-04-21T08:36:15.142Z,15.70
2023-04-21T08:37:24.612Z,15.80
2023-04-21T08:38:27.080Z,15.80
2023-04-21T08:39:29.579Z,15.80
2023-04-21T08:40:38.001Z,15.90
2023-04-21T08:41:41.742Z,16.00
2023-04-21T08:42:44.776Z,16.00
2023-04-21T08:43:46.994Z,16.10
2023-04-21T08:44:49.546Z,16.20
2023-04-21T08:45:54.504Z,16.20
2023-04-21T08:46:59.683Z,16.30
2023-04-21T08:48:04.693Z,16.30
2023-04-21T08:49:09.382Z,16.30
2023-04-21T08:50:14.675Z,16.30
2023-04-21T08:51:23.356Z,16.40
2023-04-21T08:52:25.872Z,16.40
2023-04-21T08:53:28.213Z,16.40
2023-04-21T08:54:31.078Z,16.40
2023-04-21T08:55:33.374Z,16.40
2023-04-21T08:56:35.793Z,16.50
2023-04-21T08:57:38.075Z,16.50
2023-04-21T08:58:41.811Z,16.60
2023-04-21T08:59:45.801Z,16.60
2023-04-21T09:00:48.367Z,16.60
2023-04-21T09:02:10.627Z,16.60
2023-04-21T09:03:23.211Z,16.70
2023-04-21T09:04:30.565Z,16.70
2023-04-21T09:05:34.681Z,16.70
2023-04-21T09:06:43.604Z,16.70
2023-04-21T09:07:46.115Z,16.80
2023-04-21T09:08:56.363Z,16.80
2023-04-21T09:10:00.682Z,16.90
2023-04-21T09:11:03.234Z,16.90
2023-04-21T09:12:05.561Z,17.00
2023-04-21T09:13:08.880Z,17.00
2023-04-21T09:14:11.686Z,17.10
2023-04-21T09:15:14.091Z,17.10
2023-04-21T09:16:22.196Z,17.20
2023-04-21T09:17:32.763Z,17.20
2023-04-21T09:18:37.570Z,17.30
2023-04-21T09:19:39.985Z,17.30
2023-04-21T09:20:43.987Z,17.30
2023-04-21T09:21:46.390Z,17.30
2023-04-21T09:22:51.163Z,17.40
2023-04-21T09:23:55.545Z,17.30
2023-04-21T09:25:00.207Z,17.30
2023-04-21T09:26:03.479Z,17.40
2023-04-21T09:27:05.829Z,17.40
2023-04-21T09:28:13.020Z,17.40
2023-04-21T09:29:15.619Z,17.50
2023-04-21T09:30:21.073Z,17.50
2023-04-21T09:31:25.344Z,17.60
2023-04-21T09:32:27.979Z,17.70
2023-04-21T09:33:45.734Z,17.70
2023-04-21T09:34:52.167Z,17.80
2023-04-21T09:35:54.437Z,17.80
2023-04-21T09:37:05.106Z,17.80
2023-04-21T09:38:12.379Z,17.80
2023-04-21T09:39:34.367Z,17.80
2023-04-21T09:40:37.735Z,17.80
2023-04-21T09:41:40.501Z,17.90
2023-04-21T09:42:44.785Z,17.90
2023-04-21T09:43:48.156Z,17.80
2023-04-21T09:44:56.436Z,17.80
2023-04-21T09:46:16.034Z,17.80
2023-04-21T09:47:18.922Z,17.80
2023-04-21T09:48:24.492Z,17.80
2023-04-21T09:49:35.634Z,17.80
2023-04-21T09:51:22.136Z,17.80
2023-04-21T09:53:11.414Z,17.80
2023-04-21T09:54:29.004Z,17.90
2023-04-21T09:55:33.896Z,18.00
2023-04-21T09:56:40.726Z,18.10
2023-04-21T09:57:44.892Z,18.10
2023-04-21T09:58:52.625Z,18.20
2023-04-21T10:00:00.281Z,18.20
2023-04-21T10:01:04.555Z,18.20
2023-04-21T10:02:08.389Z,18.20
2023-04-21T10:03:13.996Z,18.20
2023-04-21T10:04:17.674Z,18.20
2023-04-21T10:05:20.947Z,18.30
2023-04-21T10:06:23.526Z,18.30
2023-04-21T10:07:25.989Z,18.30
2023-04-21T10:08:29.200Z,18.30
2023-04-21T10:09:36.981Z,18.40
2023-04-21T10:10:39.712Z,18.40
2023-04-21T10:11:42.529Z,18.40
2023-04-21T10:12:45.429Z,18.40
2023-04-21T10:13:48.042Z,18.30
2023-04-21T10:14:54.196Z,18.30
2023-04-21T10:16:10.473Z,18.30
2023-04-21T10:17:12.867Z,18.30
2023-04-21T10:18:25.310Z,18.30
2023-04-21T10:19:28.412Z,18.30
2023-04-21T10:20:30.734Z,18.30
2023-04-21T10:21:36.824Z,18.30
2023-04-21T10:22:39.786Z,18.30
2023-04-21T10:23:43.976Z,18.40
2023-04-21T10:24:47.329Z,18.50
2023-04-21T10:25:49.941Z,18.50
2023-04-21T10:26:54.788Z,18.50
2023-04-21T10:27:57.620Z,18.50
2023-04-21T10:29:02.658Z,18.60
2023-04-21T10:30:26.671Z,18.70
2023-04-21T10:31:37.525Z,18.70
2023-04-21T10:32:42.174Z,18.70
2023-04-21T10:34:13.781Z,18.80
2023-04-21T10:35:23.083Z,18.80
2023-04-21T10:36:25.506Z,18.80
2023-04-21T10:37:31.541Z,18.90
2023-04-21T10:38:41.468Z,18.90
2023-04-21T10:39:45.211Z,18.80
2023-04-21T10:40:47.471Z,18.80
2023-04-21T10:41:49.832Z,18.80
2023-04-21T10:42:52.089Z,18.80
2023-04-21T10:43:54.616Z,18.80
2023-04-21T10:44:56.943Z,18.80
2023-04-21T10:45:59.202Z,18.80
2023-04-21T10:47:01.485Z,18.90
2023-04-21T10:48:13.932Z,18.90
2023-04-21T10:49:26.212Z,19.00
2023-04-21T10:50:30.803Z,19.00
2023-04-21T10:51:33.084Z,19.10
2023-04-21T10:52:35.893Z,19.10
2023-04-21T10:53:44.061Z,19.20
2023-04-21T10:54:46.428Z,19.10
2023-04-21T10:55:49.738Z,19.20
2023-04-21T10:56:53.568Z,19.20
2023-04-21T10:57:56.371Z,19.20
2023-04-21T10:59:00.704Z,19.20
2023-04-21T11:00:07.246Z,19.20
2023-04-21T11:01:12.279Z,19.20
2023-04-21T11:02:16.614Z,19.20
2023-04-21T11:03:19.125Z,19.20
2023-04-21T11:04:23.437Z,19.20
2023-04-21T11:05:31.876Z,19.20
2023-04-21T11:06:34.140Z,19.20
2023-04-21T11:07:37.029Z,19.30
2023-04-21T11:08:55.509Z,19.30
2023-04-21T11:10:03.115Z,19.40
2023-04-21T11:11:05.942Z,19.50
2023-04-21T11:12:10.453Z,19.60
2023-04-21T11:13:12.881Z,19.70
2023-04-21T11:14:17.846Z,19.70
2023-04-21T11:15:21.656Z,19.80
2023-04-21T11:16:23.972Z,19.80
2023-04-21T11:17:26.521Z,19.90
2023-04-21T11:18:43.804Z,19.90
2023-04-21T11:19:47.373Z,19.90
2023-04-21T11:20:49.792Z,19.90
2023-04-21T11:21:54.656Z,19.90
2023-04-21T11:22:57.332Z,19.90
2023-04-21T11:24:00.383Z,19.90
2023-04-21T11:25:03.400Z,19.90
2023-04-21T11:26:05.641Z,19.90
2023-04-21T11:27:12.257Z,19.90
2023-04-21T11:28:22.916Z,19.90
2023-04-21T11:29:25.562Z,19.90
2023-04-21T11:30:36.776Z,19.80
2023-04-21T11:31:41.633Z,19.90
2023-04-21T11:32:43.961Z,19.90
2023-04-21T11:33:46.219Z,19.80
2023-04-21T11:34:48.577Z,19.80
2023-04-21T11:35:51.795Z,19.90
2023-04-21T11:36:54.469Z,19.90
2023-04-21T11:37:56.930Z,19.90
2023-04-21T11:38:59.525Z,19.90
2023-04-21T11:40:01.911Z,19.90
2023-04-21T11:41:04.857Z,19.80
2023-04-21T11:42:07.421Z,19.80
2023-04-21T11:43:10.135Z,19.70
2023-04-21T11:44:14.048Z,19.70
2023-04-21T11:45:22.160Z,19.60
2023-04-21T11:46:26.606Z,19.60
2023-04-21T11:47:29.302Z,19.60
2023-04-21T11:48:31.567Z,19.60
2023-04-21T11:49:43.440Z,19.60
2023-04-21T11:50:50.243Z,19.60
2023-04-21T11:51:52.511Z,19.60
2023-04-21T11:52:55.000Z,19.70
2023-04-21T11:53:59.314Z,19.70
2023-04-21T11:55:19.952Z,19.80
2023-04-21T11:56:22.348Z,19.80
2023-04-21T11:57:26.341Z,19.90
2023-04-21T11:58:28.672Z,20.00
2023-04-21T11:59:31.912Z,20.00
2023-04-21T12:00:34.192Z,20.10
2023-04-21T12:01:49.738Z,20.10
2023-04-21T12:02:56.456Z,20.20
2023-04-21T12:03:59.172Z,20.20
2023-04-21T12:05:03.133Z,20.20
2023-04-21T12:06:06.800Z,20.20
2023-04-21T12:07:09.138Z,20.20
2023-04-21T12:08:16.316Z,20.20
2023-04-21T12:09:19.919Z,20.20
2023-04-21T12:10:22.325Z,20.20
2023-04-21T12:11:25.397Z,20.20
2023-04-21T12:12:27.853Z,20.20
2023-04-21T12:13:31.371Z,20.20
2023-04-21T12:14:33.876Z,20.20
2023-04-21T12:15:36.180Z,20.30
2023-04-21T12:16:38.532Z,20.30
2023-04-21T12:17:48.705Z,20.30
2023-04-21T12:18:51.067Z,20.30
2023-04-21T12:19:53.354Z,20.20
2023-04-21T12:20:55.807Z,20.20
2023-04-21T12:21:58.588Z,20.20
2023-04-21T12:23:01.320Z,20.10
2023-04-21T12:24:04.275Z,20.00
2023-04-21T12:25:06.939Z,20.00
2023-04-21T12:26:09.322Z,19.90
2023-04-21T12:27:12.116Z,19.90
2023-04-21T12:28:17.333Z,20.00
2023-04-21T12:29:19.810Z,20.00
2023-04-21T12:30:22.131Z,20.10
2023-04-21T12:31:24.363Z,20.10
2023-04-21T12:32:26.901Z,20.20
2023-04-21T12:33:29.300Z,20.20
2023-04-21T12:34:31.662Z,20.20
2023-04-21T12:35:34.080Z,20.30
2023-04-21T12:36:36.633Z,20.30
2023-04-21T12:37:39.104Z,20.40
2023-04-21T12:38:41.423Z,20.30
2023-04-21T12:39:43.670Z,20.40
2023-04-21T12:40:46.025Z,20.40
2023-04-21T12:41:48.906Z,20.40
2023-04-21T12:42:51.394Z,20.40
2023-04-21T12:43:53.624Z,20.30
2023-04-21T12:44:56.812Z,20.30
2023-04-21T12:46:00.019Z,20.30
2023-04-21T12:47:02.450Z,20.30
2023-04-21T12:48:05.216Z,20.30
2023-04-21T12:49:09.023Z,20.40
2023-04-21T12:50:11.510Z,20.40
2023-04-21T12:51:13.730Z,20.50
2023-04-21T12:52:15.976Z,20.50
2023-04-21T12:53:18.236Z,20.50
2023-04-21T12:54:20.660Z,20.40
2023-04-21T12:55:23.280Z,20.40
2023-04-21T12:56:26.322Z,20.40
2023-04-21T12:57:29.011Z,20.40
2023-04-21T12:58:31.452Z,20.40
2023-04-21T12:59:33.779Z,20.40
2023-04-21T13:00:36.475Z,20.40
2023-04-21T13:01:40.431Z,20.40
2023-04-21T13:02:43.147Z,20.40
2023-04-21T13:03:45.605Z,20.30
2023-04-21T13:04:48.169Z,20.20
2023-04-21T13:05:50.781Z,20.20
2023-04-21T13:06:53.113Z,20.20
2023-04-21T13:07:55.578Z,20.20
2023-04-21T13:08:57.899Z,20.20
2023-04-21T13:10:00.462Z,20.20
2023-04-21T13:11:03.035Z,20.20
2023-04-21T13:12:05.394Z,20.20
2023-04-21T13:13:07.620Z,20.20
2023-04-21T13:14:10.645Z,20.20
2023-04-21T13:15:13.320Z,20.30
2023-04-21T13:16:16.365Z,20.30
2023-04-21T13:17:19.035Z,20.40
2023-04-21T13:18:21.365Z,20.40
2023-04-21T13:19:23.679Z,20.50
2023-04-21T13:20:26.196Z,20.50
2023-04-21T13:21:28.456Z,20.50
2023-04-21T13:22:30.725Z,20.50
2023-04-21T13:23:33.031Z,20.50
2023-04-21T13:24:35.286Z,20.50
2023-04-21T13:25:38.010Z,20.40
2023-04-21T13:26:40.215Z,20.40
2023-04-21T13:27:42.545Z,20.30
2023-04-21T13:28:44.904Z,20.20
2023-04-21T13:29:47.758Z,20.30
2023-04-21T13:30:52.507Z,20.30
2023-04-21T13:31:54.796Z,20.30
2023-04-21T13:32:57.180Z,20.40
2023-04-21T13:34:01.285Z,20.40
2023-04-21T13:35:08.679Z,20.40
2023-04-21T13:36:12.871Z,20.40
2023-04-21T13:37:17.034Z,20.40
2023-04-21T13:38:20.801Z,20.50
2023-04-21T13:39:23.235Z,20.40
2023-04-21T13:40:25.522Z,20.50
2023-04-21T13:41:27.824Z,20.40
2023-04-21T13:42:30.154Z,20.40
2023-04-21T13:43:32.500Z,20.40
2023-04-21T13:44:34.745Z,20.30
2023-04-21T13:45:37.331Z,20.20
2023-04-21T13:46:39.646Z,20.20
2023-04-21T13:47:41.963Z,20.20